Time;durP1;ratioP1;P1;durP2;ratioP2;P2;SDS_P1;SDS_P2;PMS_P1;PMS_P2;Temp;Humidity;BMP_temperature;BMP_pressure;BME280_temperature;BME280_humidity;BME280_pressure;Samples;Min_cycle;Max_cycle;Signal;HPM_P1;HPM_P2
2021/12/15 00:02:11;;;;;;;;;12.75;11.00;;;;;8.95;87.78;101151.66;5049884;28;8976;-80
2021/12/15 00:04:40;;;;;;;;;10.00;8.00;;;;;8.98;87.73;101158.59;5050944;28;9527;-80
2021/12/15 00:07:08;;;;;;;;;7.00;7.00;;;;;8.98;87.54;101154.13;5049218;28;8849;-80
2021/12/15 00:09:36;;;;;;;;;7.75;6.75;;;;;8.98;87.48;101156.78;5047879;28;8949;-80
2021/12/15 00:12:04;;;;;;;;;12.75;11.75;;;;;8.97;87.88;101160.38;5051076;28;8873;-80
2021/12/15 00:14:33;;;;;;;;;10.75;9.50;;;;;8.97;88.17;101160.38;5050162;28;9285;-80
2021/12/15 00:17:00;;;;;;;;;6.50;5.00;;;;;8.99;87.72;101166.50;5050184;28;9536;-79
2021/12/15 00:19:31;;;;;;;;;9.50;9.25;;;;;8.99;87.62;101155.88;5050524;28;8851;-80
2021/12/15 00:21:59;;;;;;;;;9.00;8.00;;;;;8.99;87.60;101158.53;5052590;28;8843;-80
2021/12/15 00:24:27;;;;;;;;;6.00;4.00;;;;;8.99;87.84;101158.53;5052850;28;8853;-79
2021/12/15 00:26:55;;;;;;;;;7.75;7.50;;;;;9.00;87.81;101165.56;5053305;28;8965;-80
2021/12/15 00:29:23;;;;;;;;;7.00;6.00;;;;;9.00;87.27;101162.03;5052396;28;8842;-80
2021/12/15 00:31:51;;;;;;;;;6.50;4.00;;;;;9.00;87.78;101170.88;5048214;28;8838;-79
2021/12/15 00:34:19;;;;;;;;;11.00;10.00;;;;;9.01;87.58;101158.44;5050655;28;8854;-79
2021/12/15 00:36:48;;;;;;;;;9.25;9.25;;;;;9.01;87.61;101158.44;5049341;28;9322;-80
2021/12/15 00:39:15;;;;;;;;;10.75;10.75;;;;;9.01;87.53;101156.66;5049144;28;8973;-79
2021/12/15 00:41:43;;;;;;;;;3.50;3.25;;;;;9.02;87.65;101161.00;5049308;28;8826;-80
2021/12/15 00:44:11;;;;;;;;;10.50;10.50;;;;;9.03;87.45;101156.56;5050796;28;8985;-80
2021/12/15 00:46:39;;;;;;;;;11.00;10.00;;;;;9.03;88.01;101162.72;5050546;28;8855;-80
2021/12/15 00:49:07;;;;;;;;;9.50;8.00;;;;;9.03;87.75;101152.09;5049917;28;8858;-80
2021/12/15 00:51:35;;;;;;;;;11.00;9.50;;;;;9.04;87.74;101156.47;5050546;28;8843;-80
2021/12/15 00:54:03;;;;;;;;;9.25;8.50;;;;;9.06;87.47;101156.38;5049685;28;8882;-80
2021/12/15 00:56:30;;;;;;;;;13.25;9.25;;;;;9.07;87.42;101164.28;5049355;28;9180;-80
2021/12/15 00:58:58;;;;;;;;;9.50;7.25;;;;;9.08;87.77;101160.69;5050028;28;8858;-80
2021/12/15 01:01:27;;;;;;;;;9.00;7.00;;;;;9.09;87.83;101157.09;5049671;28;8830;-80
2021/12/15 01:03:55;;;;;;;;;6.00;6.00;;;;;9.11;87.25;101152.53;5032463;28;9146;-80
2021/12/15 01:06:24;;;;;;;;;9.00;9.00;;;;;9.12;87.25;101151.59;5049982;28;8884;-80
2021/12/15 01:08:55;;;;;;;;;9.50;7.50;;;;;9.11;87.26;101155.19;5048758;28;8996;-80
2021/12/15 01:11:27;;;;;;;;;6.00;5.25;;;;;9.09;87.65;101150.91;5050343;28;8952;-80
2021/12/15 01:22:20;;;;;;;;;6.00;6.00;;;;;8.94;87.78;101163.22;5024451;28;8947;-81
2021/12/15 01:24:48;;;;;;;;;6.50;6.00;;;;;8.90;87.84;101161.66;5049041;28;8866;-81
2021/12/15 01:27:16;;;;;;;;;9.75;9.00;;;;;8.87;88.00;101161.84;5050205;28;8870;-80
2021/12/15 01:29:46;;;;;;;;;10.25;9.00;;;;;8.87;87.86;101166.28;5048054;28;8850;-80
2021/12/15 01:32:14;;;;;;;;;7.50;7.00;;;;;8.86;87.79;101164.56;5049465;28;8904;-80
2021/12/15 01:34:42;;;;;;;;;8.50;6.50;;;;;8.87;88.31;101166.28;5050235;28;8851;-81
2021/12/15 01:37:10;;;;;;;;;10.25;8.00;;;;;8.91;87.88;101163.41;5050232;28;8850;-80
2021/12/15 01:39:38;;;;;;;;;4.50;3.00;;;;;8.92;88.10;101154.47;5048893;28;8953;-80
2021/12/15 01:42:05;;;;;;;;;7.75;5.25;;;;;8.94;87.81;101160.56;5050365;28;9583;-80
2021/12/15 01:47:19;;;;;;;;;11.25;9.25;;;;;8.98;87.58;101167.41;5049455;28;9159;-80
2021/12/15 01:49:46;;;;;;;;;3.50;3.00;;;;;9.01;87.91;101163.75;5048976;28;8868;-80
2021/12/15 01:52:15;;;;;;;;;12.25;6.25;;;;;9.05;87.23;101165.31;5047637;28;9108;-80
2021/12/15 01:54:43;;;;;;;;;9.75;9.50;;;;;9.06;87.43;101167.88;5048326;28;8890;-80
2021/12/15 01:57:11;;;;;;;;;10.50;10.25;;;;;9.08;87.26;101163.34;5047326;28;9540;-80
2021/12/15 01:59:38;;;;;;;;;8.75;8.75;;;;;9.10;87.64;101161.44;5048061;28;9536;-80
2021/12/15 02:02:06;;;;;;;;;7.50;7.50;;;;;9.10;87.66;101160.59;5047525;28;8850;-81
2021/12/15 02:04:34;;;;;;;;;9.00;8.00;;;;;9.11;87.31;101162.31;5047652;28;8851;-81
2021/12/15 02:07:03;;;;;;;;;6.00;6.00;;;;;9.10;87.83;101161.44;5049294;28;8855;-81
2021/12/15 02:09:54;;;;;;;;;12.00;11.00;;;;;9.10;87.39;101157.94;5047109;28;8854;-80
2021/12/15 02:12:25;;;;;;;;;19.25;16.00;;;;;9.07;87.64;101158.97;5047734;28;8899;-80
2021/12/15 02:14:53;;;;;;;;;9.50;9.50;;;;;9.07;87.41;101158.09;5047972;28;8875;-80
2021/12/15 02:17:20;;;;;;;;;11.25;9.75;;;;;9.05;87.42;101160.00;5046904;28;8896;-80
2021/12/15 02:19:48;;;;;;;;;10.00;8.00;;;;;9.03;87.88;101156.56;5049053;28;8984;-80
2021/12/15 02:22:16;;;;;;;;;12.25;11.00;;;;;9.03;87.63;101160.06;5049633;28;9207;-80
2021/12/15 02:24:47;;;;;;;;;10.50;9.00;;;;;9.01;87.26;101153.97;5048155;28;8854;-80
2021/12/15 02:27:15;;;;;;;;;9.25;8.50;;;;;9.02;87.95;101150.38;5047387;28;8846;-80
2021/12/15 02:29:46;;;;;;;;;9.00;8.50;;;;;9.01;87.63;101153.97;5046952;28;8864;-80
2021/12/15 02:32:20;;;;;;;;;12.25;9.50;;;;;9.02;87.65;101157.47;5048456;28;9000;-81
2021/12/15 02:37:05;;;;;;;;;10.50;9.75;;;;;9.03;87.74;101157.41;5053220;28;8831;-81
2021/12/15 02:37:45;;;;;;;;;15.00;13.00;;;;;9.04;87.41;101159.13;5052540;28;8850;-80
2021/12/15 02:40:12;;;;;;;;;12.50;12.50;;;;;9.04;87.42;101156.47;5049466;28;8838;-81
2021/12/15 02:42:40;;;;;;;;;13.50;12.00;;;;;9.06;87.66;101151.06;5052667;28;8973;-81
2021/12/15 02:45:08;;;;;;;;;12.50;12.00;;;;;9.07;87.13;101156.31;5051474;28;9024;-81
2021/12/15 02:47:36;;;;;;;;;9.50;9.50;;;;;9.08;87.79;101151.84;5051382;28;8886;-81
2021/12/15 02:50:04;;;;;;;;;15.25;13.00;;;;;9.10;87.43;101152.59;5051352;28;8867;-80
2021/12/15 02:52:32;;;;;;;;;11.25;9.50;;;;;9.12;87.65;101154.25;5050398;28;8866;-81
2021/12/15 02:55:00;;;;;;;;;8.50;7.00;;;;;9.15;87.09;101147.91;5051306;28;8892;-80
2021/12/15 02:57:28;;;;;;;;;8.50;6.50;;;;;9.18;87.16;101147.75;5050198;28;8862;-81
2021/12/15 03:00:01;;;;;;;;;13.75;11.00;;;;;9.19;87.21;101152.97;5052563;28;8864;-81
2021/12/15 03:03:02;;;;;;;;;5.50;5.50;;;;;9.21;86.84;101151.13;5053244;28;8872;-80
2021/12/15 03:05:33;;;;;;;;;9.50;8.50;;;;;9.23;87.25;101157.19;5052027;28;8822;-81
2021/12/15 03:08:06;;;;;;;;;7.00;6.50;;;;;9.24;87.42;101156.25;5050684;28;9140;-80
2021/12/15 03:16:04;;;;;;;;;6.00;4.00;;;;;9.27;87.28;101150.75;5051288;28;9009;-80
2021/12/15 03:18:32;;;;;;;;;3.75;2.50;;;;;9.27;86.79;101156.06;5051298;28;8881;-80
2021/12/15 03:21:03;;;;;;;;;12.25;11.00;;;;;9.28;86.58;101147.16;5052105;28;8858;-80
2021/12/15 03:23:32;;;;;;;;;9.50;8.00;;;;;9.29;86.82;101150.69;5052489;28;8866;-80
2021/12/15 03:26:01;;;;;;;;;10.50;8.50;;;;;9.30;87.21;101149.72;5051446;28;8839;-81
2021/12/15 03:34:12;;;;;;;;;4.50;4.50;;;;;9.33;87.02;101147.75;5052215;28;8842;-80
2021/12/15 03:37:05;;;;;;;;;7.25;5.50;;;;;9.33;86.90;101150.41;5051223;28;8872;-80
2021/12/15 03:39:28;;;;;;;;;12.75;11.50;;;;;9.31;86.85;101141.69;5050476;28;8879;-80
2021/12/15 03:42:00;;;;;;;;;12.75;11.50;;;;;9.31;86.93;101141.69;5050303;28;8870;-81
2021/12/15 03:44:28;;;;;;;;;9.25;6.75;;;;;9.31;86.78;101152.31;5051442;28;8862;-82
2021/12/15 03:46:55;;;;;;;;;4.00;3.00;;;;;9.32;86.84;101150.50;5051313;28;8859;-81
2021/12/15 03:49:23;;;;;;;;;8.00;6.50;;;;;9.32;86.76;101155.81;5051507;28;8843;-81
2021/12/15 03:51:51;;;;;;;;;8.50;7.00;;;;;9.31;87.01;101156.75;5051685;28;8854;-81
2021/12/15 03:54:19;;;;;;;;;1.50;1.00;;;;;9.30;86.82;101150.59;5051295;28;9531;-81
2021/12/15 03:56:49;;;;;;;;;6.25;6.25;;;;;9.28;86.65;101147.16;5052439;28;8862;-80
2021/12/15 03:59:18;;;;;;;;;9.00;8.00;;;;;9.29;86.97;101148.03;5051211;28;9211;-80
2021/12/15 04:01:46;;;;;;;;;13.75;11.25;;;;;9.28;87.07;101144.50;5050703;28;8843;-81
2021/12/15 04:04:14;;;;;;;;;6.50;6.50;;;;;9.28;86.75;101147.16;5052176;28;8839;-80
2021/12/15 04:06:42;;;;;;;;;9.50;9.50;;;;;9.27;86.94;101153.41;5050471;28;8894;-80
2021/12/15 04:09:09;;;;;;;;;8.50;8.00;;;;;9.27;86.70;101152.56;5048908;28;9182;-80
2021/12/15 04:11:37;;;;;;;;;9.75;9.00;;;;;9.25;86.54;101160.63;5051820;28;8888;-83
2021/12/15 04:14:08;;;;;;;;;9.50;5.25;;;;;9.18;86.79;101151.25;5049022;28;8866;-81
2021/12/15 04:16:44;;;;;;;;;7.00;6.25;;;;;9.11;87.31;101157.84;5049743;28;8894;-80
2021/12/15 04:19:12;;;;;;;;;9.25;7.50;;;;;9.02;87.55;101155.69;5051228;28;8842;-80
2021/12/15 04:21:40;;;;;;;;;11.50;11.50;;;;;8.97;87.58;101159.56;5051018;28;8838;-81
2021/12/15 04:24:08;;;;;;;;;10.00;9.25;;;;;8.91;88.15;101174.03;5051130;28;8838;-80
2021/12/15 04:26:36;;;;;;;;;6.25;6.25;;;;;8.87;88.11;101169.78;5050794;28;8861;-81
2021/12/15 04:29:06;;;;;;;;;8.50;8.00;;;;;8.85;87.75;101169.03;5050851;28;9085;-80
2021/12/15 04:31:34;;;;;;;;;12.50;11.25;;;;;8.84;87.66;101166.44;5049788;28;8922;-80
2021/12/15 04:34:02;;;;;;;;;8.00;7.00;;;;;8.82;88.47;101168.34;5050006;28;8853;-80
2021/12/15 04:36:30;;;;;;;;;12.75;11.00;;;;;8.81;88.19;101170.13;5050200;28;9528;-81
2021/12/15 04:38:58;;;;;;;;;12.50;11.00;;;;;8.82;88.17;101177.13;5049376;28;9151;-80
2021/12/15 04:41:25;;;;;;;;;11.00;9.50;;;;;8.82;88.02;101179.78;5050105;28;8870;-80
2021/12/15 04:44:09;;;;;;;;;12.00;10.25;;;;;8.83;88.44;101192.13;5050028;28;9518;-81
2021/12/15 04:46:37;;;;;;;;;8.50;8.50;;;;;8.85;88.24;101184.09;5050676;28;8985;-81
2021/12/15 04:49:05;;;;;;;;;9.50;9.25;;;;;8.86;88.37;101186.69;5050547;28;9382;-80
2021/12/15 04:51:34;;;;;;;;;10.00;10.00;;;;;8.87;88.25;101190.16;5049640;28;8871;-80
2021/12/15 04:54:02;;;;;;;;;6.75;6.25;;;;;8.89;88.13;101190.97;5049898;28;8931;-81
2021/12/15 04:56:30;;;;;;;;;9.25;8.00;;;;;8.89;87.70;101190.97;5049828;28;8886;-80
2021/12/15 04:58:58;;;;;;;;;13.25;11.75;;;;;8.88;87.98;101200.72;5049444;28;8858;-80
2021/12/15 05:01:26;;;;;;;;;3.25;3.25;;;;;8.88;88.10;101187.44;5049326;28;8944;-82
2021/12/15 05:03:54;;;;;;;;;9.50;6.50;;;;;8.88;88.10;101200.72;5049378;28;8854;-80
2021/12/15 05:06:21;;;;;;;;;5.50;5.50;;;;;8.88;88.10;101200.72;5048906;28;8839;-80
2021/12/15 05:08:49;;;;;;;;;11.50;9.75;;;;;8.88;87.96;101206.03;5048372;28;8838;-81
2021/12/15 05:11:18;;;;;;;;;7.50;7.50;;;;;8.89;88.05;101207.75;5050186;28;9219;-81
2021/12/15 05:13:45;;;;;;;;;9.25;8.50;;;;;8.91;88.10;101203.25;5050169;28;8869;-81
2021/12/15 05:16:16;;;;;;;;;9.00;7.50;;;;;8.93;87.95;101209.31;5046790;28;8862;-80
2021/12/15 05:18:45;;;;;;;;;6.25;6.00;;;;;8.94;88.34;101210.16;5047555;28;8873;-80
2021/12/15 05:21:14;;;;;;;;;9.00;6.75;;;;;8.96;87.93;101214.47;5048552;28;8846;-80
2021/12/15 05:23:44;;;;;;;;;4.50;4.00;;;;;8.96;87.86;101221.59;5049271;28;9178;-80
2021/12/15 05:26:12;;;;;;;;;7.75;6.50;;;;;8.93;88.04;101203.13;5048483;28;8903;-80
2021/12/15 05:28:40;;;;;;;;;6.50;5.50;;;;;8.90;88.07;101206.81;5048696;28;8847;-80
2021/12/15 05:31:08;;;;;;;;;5.50;5.00;;;;;8.89;88.23;101212.22;5049371;28;8935;-81
2021/12/15 05:33:35;;;;;;;;;6.50;6.25;;;;;8.86;87.80;101215.91;5048155;28;8866;-80
2021/12/15 05:36:03;;;;;;;;;4.50;4.00;;;;;8.83;88.33;101207.22;5048127;28;8969;-80
2021/12/15 05:38:35;;;;;;;;;5.25;5.25;;;;;8.81;88.18;101215.25;5047040;28;8862;-81
2021/12/15 05:41:03;;;;;;;;;8.75;8.25;;;;;8.79;88.36;101217.16;5047820;28;8953;-80
2021/12/15 05:43:30;;;;;;;;;6.00;4.00;;;;;8.76;88.27;101222.63;5046881;28;8855;-80
2021/12/15 05:45:58;;;;;;;;;3.50;3.50;;;;;8.74;88.56;101228.97;5047035;28;8852;-80
2021/12/15 05:48:26;;;;;;;;;6.00;6.00;;;;;8.72;88.77;101221.06;5046179;28;8862;-81
2021/12/15 05:50:55;;;;;;;;;7.00;7.00;;;;;8.73;88.60;101227.25;5045006;28;8870;-81
2021/12/15 05:53:23;;;;;;;;;6.50;6.00;;;;;8.76;88.92;101224.41;5047347;28;8858;-81
2021/12/15 05:55:51;;;;;;;;;6.50;6.50;;;;;8.80;88.77;101226.00;5046244;28;8834;-80
2021/12/15 05:58:19;;;;;;;;;5.00;4.00;;;;;8.81;88.21;101225.06;5048163;28;8842;-82
2021/12/15 06:00:47;;;;;;;;;4.50;4.50;;;;;8.84;88.25;101230.19;5044250;28;9492;-80
2021/12/15 06:03:15;;;;;;;;;4.50;3.50;;;;;8.86;88.46;101228.31;5048259;28;8872;-80
2021/12/15 06:05:43;;;;;;;;;6.00;6.00;;;;;8.89;88.08;101228.16;5048667;28;8997;-80
2021/12/15 06:08:10;;;;;;;;;2.75;2.75;;;;;8.91;88.36;101229.81;5046244;28;8957;-81
2021/12/15 06:10:39;;;;;;;;;6.50;4.25;;;;;8.94;88.30;101236.72;5047215;28;8889;-81
2021/12/15 06:13:07;;;;;;;;;4.50;4.00;;;;;8.97;88.48;101237.44;5045414;28;9556;-80
2021/12/15 06:15:34;;;;;;;;;4.00;4.00;;;;;8.99;87.96;101240.88;5045455;28;8984;-81
2021/12/15 06:18:02;;;;;;;;;5.00;5.00;;;;;9.01;87.91;101240.78;5044424;28;8858;-80
2021/12/15 06:20:30;;;;;;;;;4.00;3.50;;;;;9.03;87.76;101236.28;5046858;28;8842;-80
2021/12/15 06:23:00;;;;;;;;;4.50;4.50;;;;;9.04;88.19;101240.66;5046484;28;8853;-81
2021/12/15 06:25:28;;;;;;;;;4.00;4.00;;;;;9.03;87.74;101241.59;5045768;28;8858;-80
2021/12/15 06:27:56;;;;;;;;;9.50;7.00;;;;;9.03;87.91;101237.13;5046471;28;8890;-80
2021/12/15 06:30:24;;;;;;;;;4.50;4.50;;;;;9.03;88.11;101242.44;5044344;28;8878;-80
2021/12/15 06:32:52;;;;;;;;;5.00;4.50;;;;;9.00;87.74;101247.91;5043096;28;8865;-81
2021/12/15 06:35:20;;;;;;;;;3.00;3.00;;;;;9.00;88.12;101247.03;5042581;28;8850;-80
2021/12/15 06:37:48;;;;;;;;;3.50;3.25;;;;;8.99;88.67;101251.50;5041547;28;8863;-81
2021/12/15 06:40:16;;;;;;;;;1.00;1.00;;;;;9.02;87.86;101247.81;5040256;28;8870;-81
2021/12/15 06:42:44;;;;;;;;;5.50;5.50;;;;;9.04;88.02;101254.75;5041241;28;8893;-80
2021/12/15 06:45:14;;;;;;;;;4.00;3.00;;;;;9.06;87.77;101252.03;5040191;28;8866;-81
2021/12/15 06:58:41;;;;;;;;;7.00;7.00;;;;;8.89;88.42;101263.53;5035318;28;9193;-80
2021/12/15 07:01:10;;;;;;;;;6.00;6.00;;;;;8.90;87.87;101264.41;5035270;28;9144;-81
2021/12/15 07:03:38;;;;;;;;;4.50;4.50;;;;;8.91;88.23;101261.69;5036515;28;9524;-81
2021/12/15 07:06:06;;;;;;;;;8.50;7.00;;;;;8.90;87.87;101265.25;5036074;28;8862;-81
2021/12/15 07:08:36;;;;;;;;;4.00;4.00;;;;;8.90;88.04;101267.06;5032698;28;8866;-80
2021/12/15 07:11:03;;;;;;;;;6.25;6.00;;;;;8.89;88.27;101260.88;5034956;28;8866;-81
2021/12/15 07:13:31;;;;;;;;;4.50;4.00;;;;;8.89;88.06;101263.53;5038059;28;8854;-81
2021/12/15 07:16:05;;;;;;;;;6.75;6.00;;;;;8.89;87.91;101262.69;5037118;28;8880;-80
2021/12/15 07:18:41;;;;;;;;;6.50;6.50;;;;;8.88;88.61;101264.47;5036596;28;9264;-80
2021/12/15 07:21:10;;;;;;;;;4.50;4.50;;;;;8.88;88.07;101267.13;5040283;28;8866;-81
2021/12/15 07:23:38;;;;;;;;;10.00;9.00;;;;;8.89;88.45;101270.66;5040800;28;8871;-80
2021/12/15 07:26:06;;;;;;;;;3.00;1.00;;;;;8.89;88.43;101268.84;5042779;28;8846;-80
2021/12/15 07:28:34;;;;;;;;;8.50;6.00;;;;;8.89;88.51;101276.81;5040546;28;9162;-81
2021/12/15 07:31:01;;;;;;;;;8.00;6.00;;;;;8.92;88.51;101282.00;5042672;28;8866;-81
2021/12/15 07:33:30;;;;;;;;;6.00;6.00;;;;;8.94;88.19;101288.06;5040341;28;8854;-80
2021/12/15 07:35:57;;;;;;;;;5.00;5.00;;;;;8.97;87.94;101293.22;5043097;28;8862;-81
2021/12/15 07:38:26;;;;;;;;;6.00;4.50;;;;;8.99;88.19;101282.53;5039298;28;9185;-80
2021/12/15 07:40:54;;;;;;;;;7.50;6.25;;;;;9.00;87.99;101282.44;5038170;28;8862;-80
2021/12/15 07:43:28;;;;;;;;;7.00;6.00;;;;;9.01;88.39;101292.13;5037782;28;9512;-79
2021/12/15 07:45:56;;;;;;;;;5.00;3.50;;;;;9.02;88.22;101288.53;5039701;28;8826;-82
2021/12/15 07:48:24;;;;;;;;;9.50;7.00;;;;;9.02;87.70;101285.88;5037037;28;8846;-81
2021/12/15 07:50:51;;;;;;;;;6.75;6.00;;;;;9.03;88.58;101292.06;5039257;28;9213;-80
2021/12/15 07:53:19;;;;;;;;;8.00;6.00;;;;;9.00;88.29;101298.38;5040692;28;9004;-81
2021/12/15 07:55:47;;;;;;;;;4.00;4.00;;;;;8.99;88.46;101299.34;5042424;28;8895;-80
2021/12/15 07:58:15;;;;;;;;;8.00;6.50;;;;;8.99;88.29;101293.16;5037528;28;8874;-81
2021/12/15 08:00:42;;;;;;;;;9.00;6.75;;;;;8.97;88.78;101293.22;5036137;28;8854;-80
2021/12/15 08:03:11;;;;;;;;;3.75;1.00;;;;;8.98;88.59;101291.44;5034026;28;8889;-80
2021/12/15 08:05:39;;;;;;;;;7.00;4.50;;;;;9.00;88.74;101286.88;5034035;28;9697;-80
2021/12/15 08:08:07;;;;;;;;;6.50;6.50;;;;;8.99;88.65;101294.03;5034859;28;8874;-80
2021/12/15 08:10:35;;;;;;;;;6.50;6.00;;;;;9.00;88.25;101290.41;5037459;28;8888;-80
2021/12/15 08:13:03;;;;;;;;;4.50;3.50;;;;;9.01;88.50;101285.94;5036051;28;8932;-81
2021/12/15 08:15:31;;;;;;;;;4.50;4.00;;;;;9.03;88.97;101300.88;5038880;28;8896;-80
2021/12/15 08:17:59;;;;;;;;;6.00;5.50;;;;;9.05;88.39;101293.69;5033836;28;9024;-80
2021/12/15 08:20:26;;;;;;;;;4.50;4.00;;;;;9.04;88.57;101288.47;5039556;28;8866;-80
2021/12/15 08:22:54;;;;;;;;;4.00;4.00;;;;;9.01;88.18;101289.47;5037715;28;8874;-81
2021/12/15 08:25:22;;;;;;;;;5.00;4.00;;;;;9.01;88.39;101288.59;5034596;28;8858;-81
2021/12/15 08:27:50;;;;;;;;;8.00;8.00;;;;;8.98;88.77;101292.28;5036275;28;8908;-81
2021/12/15 08:30:20;;;;;;;;;7.00;6.00;;;;;8.98;89.25;101294.09;5035323;28;8977;-81
2021/12/15 08:32:48;;;;;;;;;6.50;6.00;;;;;8.98;89.30;101292.28;5031301;28;8858;-81
2021/12/15 08:35:16;;;;;;;;;4.50;4.00;;;;;8.98;88.87;101296.75;5036270;28;9002;-80
2021/12/15 08:37:45;;;;;;;;;2.00;1.00;;;;;8.98;89.19;101300.25;5032665;28;8879;-81
2021/12/15 08:40:14;;;;;;;;;1.00;1.00;;;;;8.98;89.08;101307.38;5034535;28;8850;-81
2021/12/15 08:42:42;;;;;;;;;3.75;3.00;;;;;8.99;89.11;101304.66;5037541;28;9238;-82
2021/12/15 08:45:09;;;;;;;;;4.00;4.00;;;;;9.00;89.40;101300.16;5037076;28;9264;-80
2021/12/15 08:47:37;;;;;;;;;6.00;6.00;;;;;8.99;89.50;101307.31;5039039;28;9549;-82
2021/12/15 08:50:06;;;;;;;;;0.50;0.50;;;;;9.00;89.64;101313.47;5037361;28;9136;-80
2021/12/15 08:52:34;;;;;;;;;9.50;7.00;;;;;8.99;89.32;101309.97;5038312;28;9714;-81
2021/12/15 08:55:02;;;;;;;;;12.50;10.00;;;;;9.00;89.58;101305.47;5017853;28;8967;-81
2021/12/15 08:57:31;;;;;;;;;9.25;9.00;;;;;9.00;89.56;101306.34;5035047;28;8834;-81
2021/12/15 09:00:00;;;;;;;;;6.00;5.50;;;;;9.00;89.85;101309.03;5014495;28;8971;-80
2021/12/15 09:02:28;;;;;;;;;11.75;10.25;;;;;9.01;89.03;101313.38;5035011;28;8886;-81
2021/12/15 09:04:56;;;;;;;;;8.50;6.75;;;;;9.03;89.48;101323.94;5033893;28;9121;-81
2021/12/15 09:07:24;;;;;;;;;5.25;3.50;;;;;9.04;89.58;101325.66;5033985;28;8858;-81
2021/12/15 09:09:55;;;;;;;;;9.50;8.00;;;;;9.04;89.89;101318.53;5036060;28;8870;-80
2021/12/15 09:12:23;;;;;;;;;5.50;5.00;;;;;9.07;89.53;101320.19;5038115;28;8885;-80
2021/12/15 09:14:51;;;;;;;;;4.00;4.00;;;;;9.10;89.72;101314.69;5037999;28;8906;-80
2021/12/15 09:17:19;;;;;;;;;9.00;7.00;;;;;9.13;89.50;101323.38;5035795;28;8889;-80
2021/12/15 09:19:49;;;;;;;;;7.50;6.25;;;;;9.18;89.30;101321.34;5034949;28;9255;-80
2021/12/15 09:22:17;;;;;;;;;8.75;8.50;;;;;9.24;89.44;101323.69;5038382;28;8858;-80
2021/12/15 09:24:45;;;;;;;;;3.75;3.25;;;;;9.28;88.92;101322.56;5034466;28;9093;-80
2021/12/15 09:27:13;;;;;;;;;0.50;0.00;;;;;9.31;88.56;101322.44;5034868;28;8865;-80
2021/12/15 09:29:41;;;;;;;;;3.00;2.00;;;;;9.34;88.67;101316.09;5037301;28;8985;-80
2021/12/15 09:32:09;;;;;;;;;3.00;3.00;;;;;9.37;88.77;101316.78;5018263;28;8851;-81
2021/12/15 09:34:37;;;;;;;;;6.50;6.00;;;;;9.39;88.77;101320.22;5038637;28;8883;-80
2021/12/15 09:37:05;;;;;;;;;6.00;6.00;;;;;9.42;88.85;101314.72;5035318;28;9532;-80
2021/12/15 09:39:33;;;;;;;;;4.50;3.25;;;;;9.43;88.63;101315.59;5034431;28;9163;-80
2021/12/15 09:42:27;;;;;;;;;3.50;3.00;;;;;9.45;88.44;101319.91;5030955;28;8997;-80
2021/12/15 09:45:00;;;;;;;;;5.00;4.00;;;;;9.46;88.21;101316.31;5036509;28;9264;-81
2021/12/15 09:47:44;;;;;;;;;3.25;1.00;;;;;9.47;88.71;101318.00;5036447;28;8870;-80
2021/12/15 10:04:19;;;;;;;;;7.75;6.50;;;;;9.58;88.11;101333.41;5034614;28;8939;-80
2021/12/15 10:07:04;;;;;;;;;5.50;5.00;;;;;9.61;87.72;101328.78;5032304;28;9105;-80
2021/12/15 10:18:10;;;;;;;;;2.50;0.00;;;;;9.69;87.70;101337.22;4968841;28;8890;-81
2021/12/15 10:20:38;;;;;;;;;6.00;6.00;;;;;9.71;87.75;101340.63;4971718;28;8920;-81
2021/12/15 10:23:07;;;;;;;;;3.50;3.25;;;;;9.72;87.61;101344.16;5006095;28;8870;-80
2021/12/15 10:25:34;;;;;;;;;6.25;6.00;;;;;9.74;87.68;101334.28;5014462;28;8858;-80
2021/12/15 10:28:03;;;;;;;;;12.00;7.00;;;;;9.76;88.00;101337.72;5027731;28;9093;-80
2021/12/15 10:30:31;;;;;;;;;9.00;6.75;;;;;9.78;87.91;101334.03;5035211;28;8846;-80
2021/12/15 10:32:59;;;;;;;;;6.00;4.00;;;;;9.79;87.75;101327.78;5028814;28;9211;-80
2021/12/15 10:35:27;;;;;;;;;6.00;6.00;;;;;9.79;87.94;101325.13;5032424;28;9144;-80
2021/12/15 10:37:55;;;;;;;;;4.00;3.75;;;;;9.81;87.73;101333.88;5035198;28;8858;-80
2021/12/15 10:40:23;;;;;;;;;10.25;8.00;;;;;9.82;87.90;101337.41;5028963;28;9404;-80
2021/12/15 10:42:50;;;;;;;;;5.00;4.00;;;;;9.82;87.51;101334.75;5031285;28;8870;-80
2021/12/15 10:45:18;;;;;;;;;7.00;6.75;;;;;9.82;87.40;101332.94;5033420;28;8831;-80
2021/12/15 10:47:46;;;;;;;;;11.25;10.00;;;;;9.82;87.57;101335.63;5032332;28;8869;-80
2021/12/15 10:50:14;;;;;;;;;7.00;6.00;;;;;9.84;87.65;101338.16;5029836;28;8858;-80
2021/12/15 10:52:42;;;;;;;;;7.75;6.50;;;;;9.84;87.72;101336.38;5031275;28;8870;-80
2021/12/15 10:55:10;;;;;;;;;12.00;9.00;;;;;9.85;87.44;101332.78;5035831;28;8870;-80
2021/12/15 10:57:43;;;;;;;;;11.50;11.00;;;;;9.86;87.55;101337.16;5038346;28;8867;-80
2021/12/15 11:00:12;;;;;;;;;11.50;8.50;;;;;9.89;87.43;101341.44;5036229;28;8897;-80
2021/12/15 11:02:40;;;;;;;;;7.00;6.00;;;;;9.89;87.57;101337.00;5034744;28;8901;-80
2021/12/15 11:05:10;;;;;;;;;7.25;5.00;;;;;9.89;87.44;101321.03;5037479;28;9160;-79
2021/12/15 11:07:40;;;;;;;;;12.50;11.50;;;;;9.92;87.33;101335.94;5033172;28;8959;-79
2021/12/15 11:10:07;;;;;;;;;6.50;4.50;;;;;9.93;87.40;101319.06;5035822;28;8897;-81
2021/12/15 11:12:35;;;;;;;;;8.00;6.50;;;;;9.96;87.14;101332.19;5033951;28;8868;-81
2021/12/15 11:15:03;;;;;;;;;15.25;11.00;;;;;9.97;87.55;101326.78;5036019;28;8851;-80
2021/12/15 11:17:31;;;;;;;;;10.00;9.50;;;;;9.99;86.89;101337.31;5034933;28;8850;-80
2021/12/15 11:20:02;;;;;;;;;14.00;12.00;;;;;10.00;87.50;101334.59;5036715;28;8866;-80
2021/12/15 11:22:30;;;;;;;;;22.25;15.00;;;;;10.01;87.09;101335.47;5041409;28;8874;-81
2021/12/15 11:24:58;;;;;;;;;9.75;8.50;;;;;10.02;87.47;101329.19;5034603;28;8866;-80
2021/12/15 11:27:26;;;;;;;;;11.50;9.75;;;;;10.01;87.28;101330.16;5038293;28;8858;-80
2021/12/15 11:29:55;;;;;;;;;14.00;12.00;;;;;10.00;86.89;101331.06;5036375;28;8858;-80
2021/12/15 11:32:22;;;;;;;;;6.50;4.50;;;;;10.00;87.31;101328.41;5034165;28;8846;-80
2021/12/15 11:34:50;;;;;;;;;12.25;9.75;;;;;9.98;87.01;101331.16;5036890;28;8874;-81
2021/12/15 11:37:24;;;;;;;;;18.50;16.00;;;;;9.97;87.12;101332.13;5034761;28;8858;-81
2021/12/15 11:39:51;;;;;;;;;11.00;9.00;;;;;9.97;87.21;101329.44;5035241;28;8982;-80
2021/12/15 11:42:22;;;;;;;;;13.50;10.00;;;;;9.98;87.32;101323.19;5035146;28;8870;-80
2021/12/15 11:44:51;;;;;;;;;12.50;10.50;;;;;10.00;87.17;101325.75;5037476;28;9222;-80
2021/12/15 11:47:19;;;;;;;;;12.25;10.00;;;;;10.00;87.50;101317.75;5039939;28;8846;-80
2021/12/15 11:49:48;;;;;;;;;11.00;9.00;;;;;9.99;87.60;101311.59;5033867;28;9139;-80
2021/12/15 11:52:16;;;;;;;;;9.50;7.00;;;;;10.00;87.33;101307.97;5039122;28;8859;-80
2021/12/15 11:54:47;;;;;;;;;10.00;10.00;;;;;10.01;87.45;101303.53;5039846;28;8856;-81
2021/12/15 11:57:15;;;;;;;;;8.50;8.00;;;;;10.01;87.49;101307.03;5038344;28;8878;-80
2021/12/15 11:59:44;;;;;;;;;13.00;12.25;;;;;10.03;86.97;101317.63;5039648;28;8882;-80
2021/12/15 12:02:12;;;;;;;;;11.00;6.50;;;;;10.05;87.36;101305.09;5037914;28;8969;-80
2021/12/15 12:04:42;;;;;;;;;11.25;9.50;;;;;10.05;87.48;101303.31;5038311;28;9249;-81
2021/12/15 12:07:10;;;;;;;;;12.00;10.00;;;;;10.05;86.96;101305.97;5038698;28;8894;-80
2021/12/15 12:09:38;;;;;;;;;8.50;7.00;;;;;10.04;87.25;101306.03;5041663;28;8908;-80
2021/12/15 12:12:07;;;;;;;;;11.50;10.00;;;;;10.06;87.15;101318.31;5040862;28;9217;-83
2021/12/15 12:14:43;;;;;;;;;8.00;8.00;;;;;10.06;86.89;101313.00;5043285;28;10179;-81
2021/12/15 12:17:13;;;;;;;;;6.25;6.00;;;;;10.08;86.83;101310.28;5042150;28;8858;-80
2021/12/15 12:19:40;;;;;;;;;9.00;9.00;;;;;10.11;86.85;101318.91;5040750;28;8913;-80
2021/12/15 12:22:08;;;;;;;;;13.00;10.50;;;;;10.12;86.93;101310.00;5039837;28;9108;-80
2021/12/15 12:24:37;;;;;;;;;9.75;9.00;;;;;10.13;86.96;101319.72;5038217;28;8862;-81
2021/12/15 12:27:05;;;;;;;;;6.75;5.50;;;;;10.14;87.00;101310.78;5041388;28;8979;-80
2021/12/15 12:29:33;;;;;;;;;10.50;9.00;;;;;10.14;87.23;101299.25;5039313;28;9124;-80
2021/12/15 12:32:00;;;;;;;;;9.75;9.00;;;;;10.15;86.67;101307.16;5038815;28;9340;-80
2021/12/15 12:34:29;;;;;;;;;9.50;9.50;;;;;10.15;86.96;101303.63;5038441;28;9546;-81
2021/12/15 12:36:57;;;;;;;;;7.00;6.00;;;;;10.16;86.59;101302.72;5038031;28;8866;-80
2021/12/15 12:39:25;;;;;;;;;11.50;9.75;;;;;10.15;87.08;101296.50;5040505;28;9113;-81
2021/12/15 12:41:55;;;;;;;;;8.50;8.50;;;;;10.16;86.40;101303.56;5036435;28;9587;-80